USSS

Koltsovo Airport

Yekaterinburg, Russian Federation
TAF USSS 190801Z 1909/2009 24003G08MPS 6000 -SHRA BKN011 BKN020CB TEMPO 1909/1914 27005G13MPS BKN007CB BECMG 1914/1915 3000 -RA BR OVC007 FM200800 28006G14MPS 9999 -SHRA BKN011CB
Issued Valid From Valid To
Oct-19 @ 08:01 UTC
(2 hours ago)
Oct-19 @ 09:00 UTC
(43 minutes ago)
Oct-20 @ 09:00 UTC
(in 23 hours)
Oct-19 @ 09:00 to Oct-19 @ 14:00
TAF USSS 190801Z 1909/2009 24003G08MPS 6000 -SHRA BKN011 BKN020CB
Wind Visibility Clouds Conditions
240° at 6 knots
 Gusting to 16 knots
6,003 meters
  • Broken at 1,100' AGL
  • Broken at 2,000' AGL
  • Light Rain
Temporary Oct-19 @ 09:00 to Oct-19 @ 14:00
TEMPO 1909/1914 27005G13MPS BKN007CB
Wind Clouds
270° at 10 knots
 Gusting to 25 knots
  • Broken at 700' AGL
Becoming Oct-19 @ 14:00 to Oct-20 @ 08:00
BECMG 1914/1915 3000 -RA BR OVC007
Wind Visibility Clouds Conditions
240° at 6 knots
 Gusting to 16 knots
2,993 meters
  • Overcast at 700' AGL
  • Light Rain
  • Mist
From Oct-20 @ 08:00 to Oct-20 @ 09:00
FM200800 28006G14MPS 9999 -SHRA BKN011CB
Wind Visibility Clouds Conditions
280° at 12 knots
 Gusting to 27 knots
10,000+ meters
  • Broken at 1,100' AGL
  • Light Rain
TAF USSS 190801Z 1909/2009 24003G08MPS 6000 -SHRA BKN011 BKN020CB TEMPO 1909/1914 27005G13MPS BKN007CB BECMG 1914/1915 3000 -RA BR OVC007 FM200800 28006G14MPS 9999 -SHRA BKN011CB
Issued Oct-19 @ 08:01 UTC
(2 hours ago)
Valid From Oct-19 @ 09:00 UTC
(43 minutes ago)
Valid To Oct-20 @ 09:00 UTC
(in 23 hours)
Oct-19 @ 09:00 - Oct-19 @ 14:00
Wind Visibility
240° at 6 knots
 Gusting to 16 knots
6,003 meters
Clouds
  • Broken at 1,100' AGL
  • Broken at 2,000' AGL
Conditions
  • Light Rain
Temporary Oct-19 @ 09:00 - Oct-19 @ 14:00
Wind
270° at 10 knots
 Gusting to 25 knots
Clouds
  • Broken at 700' AGL
Becoming Oct-19 @ 14:00 - Oct-20 @ 08:00
Wind Visibility
240° at 6 knots
 Gusting to 16 knots
2,993 meters
Clouds
  • Overcast at 700' AGL
Conditions
  • Light Rain
  • Mist
From Oct-20 @ 08:00 - Oct-20 @ 09:00
Wind Visibility
280° at 12 knots
 Gusting to 27 knots
10,000+ meters
Clouds
  • Broken at 1,100' AGL
Conditions
  • Light Rain